sensor_id;sensor_type;location;lat;lon;timestamp;temperature;humidity
24664;DHT22;12791;50.992;13.788;2023-09-08T00:01:57;17.70;99.90
24664;DHT22;12791;50.992;13.788;2023-09-08T00:04:24;17.70;99.90
24664;DHT22;12791;50.992;13.788;2023-09-08T00:06:51;17.70;99.90
24664;DHT22;12791;50.992;13.788;2023-09-08T00:09:18;17.70;99.90
24664;DHT22;12791;50.992;13.788;2023-09-08T00:11:46;17.70;99.90
24664;DHT22;12791;50.992;13.788;2023-09-08T00:14:12;17.70;99.90
24664;DHT22;12791;50.992;13.788;2023-09-08T00:16:39;17.70;99.90
24664;DHT22;12791;50.992;13.788;2023-09-08T00:19:08;17.60;99.90
24664;DHT22;12791;50.992;13.788;2023-09-08T00:21:35;17.60;99.90
24664;DHT22;12791;50.992;13.788;2023-09-08T00:24:02;17.60;99.90
24664;DHT22;12791;50.992;13.788;2023-09-08T00:26:29;17.60;99.90
24664;DHT22;12791;50.992;13.788;2023-09-08T00:28:57;17.60;99.90
24664;DHT22;12791;50.992;13.788;2023-09-08T00:31:24;17.60;99.90
24664;DHT22;12791;50.992;13.788;2023-09-08T00:33:51;17.50;99.90
24664;DHT22;12791;50.992;13.788;2023-09-08T00:36:17;17.50;99.90
24664;DHT22;12791;50.992;13.788;2023-09-08T00:38:44;17.50;99.90
24664;DHT22;12791;50.992;13.788;2023-09-08T00:41:11;17.50;99.90
24664;DHT22;12791;50.992;13.788;2023-09-08T00:43:38;17.60;99.90
24664;DHT22;12791;50.992;13.788;2023-09-08T00:46:06;17.50;99.90
24664;DHT22;12791;50.992;13.788;2023-09-08T00:48:33;17.50;99.90
24664;DHT22;12791;50.992;13.788;2023-09-08T00:51:00;17.60;99.90
24664;DHT22;12791;50.992;13.788;2023-09-08T00:53:27;17.50;99.90
24664;DHT22;12791;50.992;13.788;2023-09-08T00:55:54;17.50;99.90
24664;DHT22;12791;50.992;13.788;2023-09-08T00:58:22;17.50;99.90
24664;DHT22;12791;50.992;13.788;2023-09-08T01:00:49;17.50;99.90
24664;DHT22;12791;50.992;13.788;2023-09-08T01:03:17;17.50;99.90
24664;DHT22;12791;50.992;13.788;2023-09-08T01:05:44;17.40;99.90
24664;DHT22;12791;50.992;13.788;2023-09-08T01:08:13;17.40;99.90
24664;DHT22;12791;50.992;13.788;2023-09-08T01:10:40;17.40;99.90
24664;DHT22;12791;50.992;13.788;2023-09-08T01:13:07;17.40;99.90
24664;DHT22;12791;50.992;13.788;2023-09-08T01:15:34;17.40;99.90
24664;DHT22;12791;50.992;13.788;2023-09-08T01:18:01;17.40;99.90
24664;DHT22;12791;50.992;13.788;2023-09-08T01:20:32;17.30;99.90
24664;DHT22;12791;50.992;13.788;2023-09-08T01:23:15;17.30;99.90
24664;DHT22;12791;50.992;13.788;2023-09-08T01:25:47;17.30;99.90
24664;DHT22;12791;50.992;13.788;2023-09-08T01:28:17;17.30;99.90
24664;DHT22;12791;50.992;13.788;2023-09-08T01:30:47;17.30;99.90
24664;DHT22;12791;50.992;13.788;2023-09-08T01:33:15;17.30;99.90
24664;DHT22;12791;50.992;13.788;2023-09-08T01:35:42;17.30;99.90
24664;DHT22;12791;50.992;13.788;2023-09-08T01:38:09;17.30;99.90
24664;DHT22;12791;50.992;13.788;2023-09-08T01:40:36;17.30;99.90
24664;DHT22;12791;50.992;13.788;2023-09-08T01:43:05;17.30;99.90
24664;DHT22;12791;50.992;13.788;2023-09-08T01:45:31;17.40;99.90
24664;DHT22;12791;50.992;13.788;2023-09-08T01:47:58;17.40;99.90
24664;DHT22;12791;50.992;13.788;2023-09-08T01:50:25;17.40;99.90
24664;DHT22;12791;50.992;13.788;2023-09-08T01:52:51;17.40;99.90
24664;DHT22;12791;50.992;13.788;2023-09-08T01:55:18;17.40;99.90
24664;DHT22;12791;50.992;13.788;2023-09-08T01:57:46;17.40;99.90
24664;DHT22;12791;50.992;13.788;2023-09-08T02:00:14;17.40;99.90
24664;DHT22;12791;50.992;13.788;2023-09-08T02:02:41;17.40;99.90
24664;DHT22;12791;50.992;13.788;2023-09-08T02:05:08;17.40;99.90
24664;DHT22;12791;50.992;13.788;2023-09-08T02:07:35;17.50;99.90
24664;DHT22;12791;50.992;13.788;2023-09-08T02:10:02;17.50;99.90
24664;DHT22;12791;50.992;13.788;2023-09-08T02:12:28;17.50;99.90
24664;DHT22;12791;50.992;13.788;2023-09-08T02:14:55;17.40;99.90
24664;DHT22;12791;50.992;13.788;2023-09-08T02:17:23;17.40;99.90
24664;DHT22;12791;50.992;13.788;2023-09-08T02:19:50;17.40;99.90
24664;DHT22;12791;50.992;13.788;2023-09-08T02:22:16;17.40;99.90
24664;DHT22;12791;50.992;13.788;2023-09-08T02:24:43;17.40;99.90
24664;DHT22;12791;50.992;13.788;2023-09-08T02:27:10;17.40;99.90
24664;DHT22;12791;50.992;13.788;2023-09-08T02:29:36;17.40;99.90
24664;DHT22;12791;50.992;13.788;2023-09-08T02:32:04;17.40;99.90
24664;DHT22;12791;50.992;13.788;2023-09-08T02:34:34;17.40;99.90
24664;DHT22;12791;50.992;13.788;2023-09-08T02:37:02;17.40;99.90
24664;DHT22;12791;50.992;13.788;2023-09-08T02:39:28;17.30;99.90
24664;DHT22;12791;50.992;13.788;2023-09-08T02:41:55;17.30;99.90
24664;DHT22;12791;50.992;13.788;2023-09-08T02:44:22;17.30;99.90
24664;DHT22;12791;50.992;13.788;2023-09-08T02:46:49;17.30;99.90
24664;DHT22;12791;50.992;13.788;2023-09-08T02:49:15;17.30;99.90
24664;DHT22;12791;50.992;13.788;2023-09-08T02:51:43;17.30;99.90
24664;DHT22;12791;50.992;13.788;2023-09-08T02:54:10;17.20;99.90
24664;DHT22;12791;50.992;13.788;2023-09-08T02:56:37;17.20;99.90
24664;DHT22;12791;50.992;13.788;2023-09-08T02:59:03;17.20;99.90
24664;DHT22;12791;50.992;13.788;2023-09-08T03:01:30;17.20;99.90
24664;DHT22;12791;50.992;13.788;2023-09-08T03:03:57;17.10;99.90
24664;DHT22;12791;50.992;13.788;2023-09-08T03:06:24;17.10;99.90
24664;DHT22;12791;50.992;13.788;2023-09-08T03:08:52;17.10;99.90
24664;DHT22;12791;50.992;13.788;2023-09-08T03:11:18;17.10;99.90
24664;DHT22;12791;50.992;13.788;2023-09-08T03:13:45;17.00;99.90
24664;DHT22;12791;50.992;13.788;2023-09-08T03:16:12;17.10;99.90
24664;DHT22;12791;50.992;13.788;2023-09-08T03:18:38;17.00;99.90
24664;DHT22;12791;50.992;13.788;2023-09-08T03:21:05;17.00;99.90
24664;DHT22;12791;50.992;13.788;2023-09-08T03:23:36;17.00;99.90
24664;DHT22;12791;50.992;13.788;2023-09-08T03:26:04;16.90;99.90
24664;DHT22;12791;50.992;13.788;2023-09-08T03:28:32;16.90;99.90
24664;DHT22;12791;50.992;13.788;2023-09-08T03:31:00;16.80;99.90
24664;DHT22;12791;50.992;13.788;2023-09-08T03:33:26;16.80;99.90
24664;DHT22;12791;50.992;13.788;2023-09-08T03:35:53;16.80;99.90
24664;DHT22;12791;50.992;13.788;2023-09-08T03:38:20;16.80;99.90
24664;DHT22;12791;50.992;13.788;2023-09-08T03:40:47;16.80;99.90
24664;DHT22;12791;50.992;13.788;2023-09-08T03:43:15;16.80;99.90
24664;DHT22;12791;50.992;13.788;2023-09-08T03:45:42;16.70;99.90
24664;DHT22;12791;50.992;13.788;2023-09-08T03:48:09;16.70;99.90
24664;DHT22;12791;50.992;13.788;2023-09-08T03:50:36;16.50;99.90
24664;DHT22;12791;50.992;13.788;2023-09-08T03:53:03;16.40;99.90
24664;DHT22;12791;50.992;13.788;2023-09-08T03:55:29;16.40;99.90
24664;DHT22;12791;50.992;13.788;2023-09-08T03:57:56;16.30;99.90
24664;DHT22;12791;50.992;13.788;2023-09-08T04:00:25;16.30;99.90
24664;DHT22;12791;50.992;13.788;2023-09-08T04:02:51;16.20;99.90
24664;DHT22;12791;50.992;13.788;2023-09-08T04:05:18;16.30;99.90
24664;DHT22;12791;50.992;13.788;2023-09-08T04:07:45;16.30;99.90
24664;DHT22;12791;50.992;13.788;2023-09-08T04:10:12;16.30;99.90
24664;DHT22;12791;50.992;13.788;2023-09-08T04:12:39;16.30;99.90
24664;DHT22;12791;50.992;13.788;2023-09-08T04:15:06;16.30;99.90
24664;DHT22;12791;50.992;13.788;2023-09-08T04:17:34;16.30;99.90
24664;DHT22;12791;50.992;13.788;2023-09-08T04:20:01;16.20;99.90
24664;DHT22;12791;50.992;13.788;2023-09-08T04:22:30;16.10;99.90
24664;DHT22;12791;50.992;13.788;2023-09-08T04:24:57;16.10;99.90
24664;DHT22;12791;50.992;13.788;2023-09-08T04:27:23;16.20;99.90
24664;DHT22;12791;50.992;13.788;2023-09-08T04:29:50;16.20;99.90
24664;DHT22;12791;50.992;13.788;2023-09-08T04:32:17;16.10;99.90
24664;DHT22;12791;50.992;13.788;2023-09-08T04:34:45;16.10;99.90
24664;DHT22;12791;50.992;13.788;2023-09-08T04:37:11;16.10;99.90
24664;DHT22;12791;50.992;13.788;2023-09-08T04:39:39;16.10;99.90
24664;DHT22;12791;50.992;13.788;2023-09-08T04:42:06;16.20;99.90
24664;DHT22;12791;50.992;13.788;2023-09-08T04:44:33;16.20;99.90
24664;DHT22;12791;50.992;13.788;2023-09-08T04:46:59;16.20;99.90
24664;DHT22;12791;50.992;13.788;2023-09-08T04:49:26;16.30;99.90
24664;DHT22;12791;50.992;13.788;2023-09-08T04:51:55;16.30;99.90
24664;DHT22;12791;50.992;13.788;2023-09-08T04:54:22;16.30;99.90
24664;DHT22;12791;50.992;13.788;2023-09-08T04:56:52;16.30;99.90
24664;DHT22;12791;50.992;13.788;2023-09-08T04:59:18;16.30;99.90
24664;DHT22;12791;50.992;13.788;2023-09-08T05:01:45;16.30;99.90
24664;DHT22;12791;50.992;13.788;2023-09-08T05:04:12;16.40;99.90
24664;DHT22;12791;50.992;13.788;2023-09-08T05:06:38;16.40;99.90
24664;DHT22;12791;50.992;13.788;2023-09-08T05:09:06;16.40;99.90
24664;DHT22;12791;50.992;13.788;2023-09-08T05:11:33;16.40;99.90
24664;DHT22;12791;50.992;13.788;2023-09-08T05:14:00;16.50;99.90
24664;DHT22;12791;50.992;13.788;2023-09-08T05:16:27;16.50;99.90
24664;DHT22;12791;50.992;13.788;2023-09-08T05:19:05;16.50;99.90
24664;DHT22;12791;50.992;13.788;2023-09-08T05:21:33;16.60;99.90
24664;DHT22;12791;50.992;13.788;2023-09-08T05:24:00;16.70;99.90
24664;DHT22;12791;50.992;13.788;2023-09-08T05:26:28;16.70;99.90
24664;DHT22;12791;50.992;13.788;2023-09-08T05:28:55;16.70;99.90
24664;DHT22;12791;50.992;13.788;2023-09-08T05:31:21;16.70;99.90
24664;DHT22;12791;50.992;13.788;2023-09-08T05:33:48;16.80;99.90
24664;DHT22;12791;50.992;13.788;2023-09-08T05:36:15;16.80;99.90
24664;DHT22;12791;50.992;13.788;2023-09-08T05:38:41;16.80;99.90
24664;DHT22;12791;50.992;13.788;2023-09-08T05:41:08;16.80;99.90
24664;DHT22;12791;50.992;13.788;2023-09-08T05:43:36;16.90;99.90
24664;DHT22;12791;50.992;13.788;2023-09-08T05:46:03;16.90;99.90
24664;DHT22;12791;50.992;13.788;2023-09-08T05:48:30;17.00;99.90
24664;DHT22;12791;50.992;13.788;2023-09-08T05:50:56;17.00;99.90
24664;DHT22;12791;50.992;13.788;2023-09-08T05:53:24;17.10;99.90
24664;DHT22;12791;50.992;13.788;2023-09-08T05:55:50;17.20;99.90
24664;DHT22;12791;50.992;13.788;2023-09-08T05:58:18;17.20;99.90
24664;DHT22;12791;50.992;13.788;2023-09-08T06:00:46;17.30;99.90
24664;DHT22;12791;50.992;13.788;2023-09-08T06:03:12;17.30;99.90
24664;DHT22;12791;50.992;13.788;2023-09-08T06:05:39;17.40;99.90
24664;DHT22;12791;50.992;13.788;2023-09-08T06:08:06;17.50;99.90
24664;DHT22;12791;50.992;13.788;2023-09-08T06:10:32;17.50;99.90
24664;DHT22;12791;50.992;13.788;2023-09-08T06:12:59;17.60;99.90
24664;DHT22;12791;50.992;13.788;2023-09-08T06:15:27;17.60;99.90
24664;DHT22;12791;50.992;13.788;2023-09-08T06:17:55;17.60;99.90
24664;DHT22;12791;50.992;13.788;2023-09-08T06:20:21;17.70;99.90
24664;DHT22;12791;50.992;13.788;2023-09-08T06:22:49;17.70;99.90
24664;DHT22;12791;50.992;13.788;2023-09-08T06:25:16;17.80;99.90
24664;DHT22;12791;50.992;13.788;2023-09-08T06:27:43;17.80;99.90
24664;DHT22;12791;50.992;13.788;2023-09-08T06:30:10;17.80;99.90
24664;DHT22;12791;50.992;13.788;2023-09-08T06:32:39;17.90;99.90
24664;DHT22;12791;50.992;13.788;2023-09-08T06:35:07;17.90;99.90
24664;DHT22;12791;50.992;13.788;2023-09-08T06:37:35;17.90;99.90
24664;DHT22;12791;50.992;13.788;2023-09-08T06:40:03;18.00;99.90
24664;DHT22;12791;50.992;13.788;2023-09-08T06:42:30;18.00;99.90
24664;DHT22;12791;50.992;13.788;2023-09-08T06:44:56;18.10;99.90
24664;DHT22;12791;50.992;13.788;2023-09-08T06:47:23;18.10;99.90
24664;DHT22;12791;50.992;13.788;2023-09-08T06:49:50;18.20;99.90
24664;DHT22;12791;50.992;13.788;2023-09-08T06:52:18;18.30;99.90
24664;DHT22;12791;50.992;13.788;2023-09-08T06:54:44;18.30;99.90
24664;DHT22;12791;50.992;13.788;2023-09-08T06:57:12;18.40;99.90
24664;DHT22;12791;50.992;13.788;2023-09-08T06:59:39;18.40;99.90
24664;DHT22;12791;50.992;13.788;2023-09-08T07:02:07;18.50;99.90
24664;DHT22;12791;50.992;13.788;2023-09-08T07:04:34;18.50;99.90
24664;DHT22;12791;50.992;13.788;2023-09-08T07:07:00;18.50;99.90
24664;DHT22;12791;50.992;13.788;2023-09-08T07:09:30;18.60;99.90
24664;DHT22;12791;50.992;13.788;2023-09-08T07:11:57;18.60;99.90
24664;DHT22;12791;50.992;13.788;2023-09-08T07:14:22;18.70;99.90
24664;DHT22;12791;50.992;13.788;2023-09-08T07:16:49;18.70;99.90
24664;DHT22;12791;50.992;13.788;2023-09-08T07:19:16;18.80;99.90
24664;DHT22;12791;50.992;13.788;2023-09-08T07:21:42;18.80;99.90
24664;DHT22;12791;50.992;13.788;2023-09-08T07:24:09;18.90;99.90
24664;DHT22;12791;50.992;13.788;2023-09-08T07:26:37;18.90;99.90
24664;DHT22;12791;50.992;13.788;2023-09-08T07:29:04;19.00;99.90
24664;DHT22;12791;50.992;13.788;2023-09-08T07:31:30;19.00;99.90
24664;DHT22;12791;50.992;13.788;2023-09-08T07:33:57;19.10;99.90
24664;DHT22;12791;50.992;13.788;2023-09-08T07:36:24;19.20;99.90
24664;DHT22;12791;50.992;13.788;2023-09-08T07:38:50;19.30;99.90
24664;DHT22;12791;50.992;13.788;2023-09-08T07:41:17;19.40;99.90
24664;DHT22;12791;50.992;13.788;2023-09-08T07:43:45;19.40;99.90
24664;DHT22;12791;50.992;13.788;2023-09-08T07:46:12;19.50;99.90
24664;DHT22;12791;50.992;13.788;2023-09-08T07:48:39;19.60;99.90
24664;DHT22;12791;50.992;13.788;2023-09-08T07:51:06;19.60;99.90
24664;DHT22;12791;50.992;13.788;2023-09-08T07:53:32;19.70;99.90
24664;DHT22;12791;50.992;13.788;2023-09-08T07:55:59;19.80;99.90
24664;DHT22;12791;50.992;13.788;2023-09-08T07:58:26;19.90;99.90
24664;DHT22;12791;50.992;13.788;2023-09-08T08:00:54;20.00;99.90
24664;DHT22;12791;50.992;13.788;2023-09-08T08:03:21;20.10;99.90
24664;DHT22;12791;50.992;13.788;2023-09-08T08:05:48;20.20;99.90
24664;DHT22;12791;50.992;13.788;2023-09-08T08:08:14;20.20;99.90
24664;DHT22;12791;50.992;13.788;2023-09-08T08:10:41;20.40;99.90
24664;DHT22;12791;50.992;13.788;2023-09-08T08:13:08;20.50;99.90
24664;DHT22;12791;50.992;13.788;2023-09-08T08:15:36;20.60;99.90
24664;DHT22;12791;50.992;13.788;2023-09-08T08:18:05;20.80;99.90
24664;DHT22;12791;50.992;13.788;2023-09-08T08:20:32;20.80;99.90
24664;DHT22;12791;50.992;13.788;2023-09-08T08:23:00;20.90;99.90
24664;DHT22;12791;50.992;13.788;2023-09-08T08:25:28;21.00;99.90
24664;DHT22;12791;50.992;13.788;2023-09-08T08:27:54;21.10;99.90
24664;DHT22;12791;50.992;13.788;2023-09-08T08:30:21;21.10;99.90
24664;DHT22;12791;50.992;13.788;2023-09-08T08:32:48;21.20;99.90
24664;DHT22;12791;50.992;13.788;2023-09-08T08:35:18;21.30;99.90
24664;DHT22;12791;50.992;13.788;2023-09-08T08:37:44;21.30;99.90
24664;DHT22;12791;50.992;13.788;2023-09-08T08:40:11;21.40;99.90
24664;DHT22;12791;50.992;13.788;2023-09-08T08:42:39;21.40;99.90
24664;DHT22;12791;50.992;13.788;2023-09-08T08:45:06;21.50;99.90
24664;DHT22;12791;50.992;13.788;2023-09-08T08:47:33;21.50;99.90
24664;DHT22;12791;50.992;13.788;2023-09-08T08:50:02;21.60;99.90
24664;DHT22;12791;50.992;13.788;2023-09-08T08:52:31;21.70;99.90
24664;DHT22;12791;50.992;13.788;2023-09-08T08:54:59;21.80;99.90
24664;DHT22;12791;50.992;13.788;2023-09-08T08:57:26;21.80;99.90
24664;DHT22;12791;50.992;13.788;2023-09-08T08:59:54;21.80;99.90
24664;DHT22;12791;50.992;13.788;2023-09-08T09:02:21;21.90;99.90
24664;DHT22;12791;50.992;13.788;2023-09-08T09:04:49;21.90;99.90
24664;DHT22;12791;50.992;13.788;2023-09-08T09:07:18;22.00;99.60
24664;DHT22;12791;50.992;13.788;2023-09-08T09:09:46;22.10;98.30
24664;DHT22;12791;50.992;13.788;2023-09-08T09:12:13;22.20;97.10
24664;DHT22;12791;50.992;13.788;2023-09-08T09:14:45;22.30;96.30
24664;DHT22;12791;50.992;13.788;2023-09-08T09:17:13;22.40;95.70
24664;DHT22;12791;50.992;13.788;2023-09-08T09:19:40;22.50;95.50
24664;DHT22;12791;50.992;13.788;2023-09-08T09:22:07;22.60;94.30
24664;DHT22;12791;50.992;13.788;2023-09-08T09:24:35;22.70;87.60
24664;DHT22;12791;50.992;13.788;2023-09-08T09:27:05;22.80;74.40
24664;DHT22;12791;50.992;13.788;2023-09-08T09:29:33;22.90;76.40
24664;DHT22;12791;50.992;13.788;2023-09-08T09:32:03;23.00;72.80
24664;DHT22;12791;50.992;13.788;2023-09-08T09:34:30;23.10;67.90
24664;DHT22;12791;50.992;13.788;2023-09-08T09:36:57;23.20;66.40
24664;DHT22;12791;50.992;13.788;2023-09-08T09:39:25;23.40;65.90
24664;DHT22;12791;50.992;13.788;2023-09-08T09:41:54;23.40;63.10
24664;DHT22;12791;50.992;13.788;2023-09-08T09:44:23;23.50;63.10
24664;DHT22;12791;50.992;13.788;2023-09-08T09:46:52;23.50;64.00
24664;DHT22;12791;50.992;13.788;2023-09-08T09:49:19;23.50;63.30
24664;DHT22;12791;50.992;13.788;2023-09-08T09:51:48;23.50;60.80
24664;DHT22;12791;50.992;13.788;2023-09-08T09:54:17;23.50;59.10
24664;DHT22;12791;50.992;13.788;2023-09-08T09:56:44;23.70;57.00
24664;DHT22;12791;50.992;13.788;2023-09-08T09:59:13;23.90;55.10
24664;DHT22;12791;50.992;13.788;2023-09-08T10:01:41;24.00;55.90
24664;DHT22;12791;50.992;13.788;2023-09-08T10:04:08;24.00;55.60
24664;DHT22;12791;50.992;13.788;2023-09-08T10:06:37;24.00;55.00
24664;DHT22;12791;50.992;13.788;2023-09-08T10:09:05;24.00;54.40
24664;DHT22;12791;50.992;13.788;2023-09-08T10:11:36;24.00;53.60
24664;DHT22;12791;50.992;13.788;2023-09-08T10:14:07;24.10;51.40
24664;DHT22;12791;50.992;13.788;2023-09-08T10:16:38;24.20;51.50
24664;DHT22;12791;50.992;13.788;2023-09-08T10:19:08;24.20;51.90
24664;DHT22;12791;50.992;13.788;2023-09-08T10:21:39;24.20;51.30
24664;DHT22;12791;50.992;13.788;2023-09-08T10:24:12;24.20;50.50
24664;DHT22;12791;50.992;13.788;2023-09-08T10:26:43;24.30;50.90
24664;DHT22;12791;50.992;13.788;2023-09-08T10:29:10;24.30;50.50
24664;DHT22;12791;50.992;13.788;2023-09-08T10:31:37;24.30;49.30
24664;DHT22;12791;50.992;13.788;2023-09-08T10:34:04;24.40;49.70
24664;DHT22;12791;50.992;13.788;2023-09-08T10:36:34;24.40;50.50
24664;DHT22;12791;50.992;13.788;2023-09-08T10:39:31;24.40;49.20
24664;DHT22;12791;50.992;13.788;2023-09-08T10:42:20;24.40;49.30
24664;DHT22;12791;50.992;13.788;2023-09-08T10:44:57;24.40;49.40
24664;DHT22;12791;50.992;13.788;2023-09-08T10:47:25;24.40;48.20
24664;DHT22;12791;50.992;13.788;2023-09-08T10:49:53;24.40;48.80
24664;DHT22;12791;50.992;13.788;2023-09-08T10:52:24;24.50;47.50
24664;DHT22;12791;50.992;13.788;2023-09-08T10:54:52;24.50;47.70
24664;DHT22;12791;50.992;13.788;2023-09-08T10:57:20;24.50;47.60
24664;DHT22;12791;50.992;13.788;2023-09-08T10:59:51;24.60;47.10
24664;DHT22;12791;50.992;13.788;2023-09-08T11:02:34;24.60;47.90
24664;DHT22;12791;50.992;13.788;2023-09-08T11:05:01;24.60;46.60
24664;DHT22;12791;50.992;13.788;2023-09-08T11:07:31;24.60;46.50
24664;DHT22;12791;50.992;13.788;2023-09-08T11:09:59;24.60;46.90
24664;DHT22;12791;50.992;13.788;2023-09-08T11:12:27;24.60;47.00
24664;DHT22;12791;50.992;13.788;2023-09-08T11:14:54;24.70;47.00
24664;DHT22;12791;50.992;13.788;2023-09-08T11:17:24;24.70;46.70
24664;DHT22;12791;50.992;13.788;2023-09-08T11:19:51;24.70;45.00
24664;DHT22;12791;50.992;13.788;2023-09-08T11:22:18;24.80;46.20
24664;DHT22;12791;50.992;13.788;2023-09-08T11:24:46;24.90;46.90
24664;DHT22;12791;50.992;13.788;2023-09-08T11:27:12;24.80;48.30
24664;DHT22;12791;50.992;13.788;2023-09-08T11:29:39;24.80;48.40
24664;DHT22;12791;50.992;13.788;2023-09-08T11:32:07;24.70;48.70
24664;DHT22;12791;50.992;13.788;2023-09-08T11:34:34;24.70;49.00
24664;DHT22;12791;50.992;13.788;2023-09-08T11:37:01;24.70;48.20
24664;DHT22;12791;50.992;13.788;2023-09-08T11:39:36;24.80;48.20
24664;DHT22;12791;50.992;13.788;2023-09-08T11:42:05;24.80;48.60
24664;DHT22;12791;50.992;13.788;2023-09-08T11:44:32;24.80;47.40
24664;DHT22;12791;50.992;13.788;2023-09-08T11:46:59;24.90;47.40
24664;DHT22;12791;50.992;13.788;2023-09-08T11:49:26;24.90;46.50
24664;DHT22;12791;50.992;13.788;2023-09-08T11:51:52;25.00;46.90
24664;DHT22;12791;50.992;13.788;2023-09-08T11:54:19;24.90;47.00
24664;DHT22;12791;50.992;13.788;2023-09-08T11:56:46;24.90;47.10
24664;DHT22;12791;50.992;13.788;2023-09-08T11:59:14;24.90;47.20
24664;DHT22;12791;50.992;13.788;2023-09-08T12:01:41;24.90;47.70
24664;DHT22;12791;50.992;13.788;2023-09-08T12:04:17;24.90;48.00
24664;DHT22;12791;50.992;13.788;2023-09-08T12:06:44;25.00;46.60
24664;DHT22;12791;50.992;13.788;2023-09-08T12:09:11;25.10;46.40
24664;DHT22;12791;50.992;13.788;2023-09-08T12:11:38;25.10;44.10
24664;DHT22;12791;50.992;13.788;2023-09-08T12:14:09;25.20;44.30
24664;DHT22;12791;50.992;13.788;2023-09-08T12:16:38;25.30;44.80
24664;DHT22;12791;50.992;13.788;2023-09-08T12:19:05;25.40;43.80
24664;DHT22;12791;50.992;13.788;2023-09-08T12:21:35;25.40;44.20
24664;DHT22;12791;50.992;13.788;2023-09-08T12:24:02;25.40;45.00
24664;DHT22;12791;50.992;13.788;2023-09-08T12:26:28;25.40;45.40
24664;DHT22;12791;50.992;13.788;2023-09-08T12:28:55;25.30;45.50
24664;DHT22;12791;50.992;13.788;2023-09-08T12:31:22;25.30;45.90
24664;DHT22;12791;50.992;13.788;2023-09-08T12:33:50;25.30;44.50
24664;DHT22;12791;50.992;13.788;2023-09-08T12:36:19;25.30;44.80
24664;DHT22;12791;50.992;13.788;2023-09-08T12:38:50;25.30;44.80
24664;DHT22;12791;50.992;13.788;2023-09-08T12:41:17;25.30;44.80
24664;DHT22;12791;50.992;13.788;2023-09-08T12:43:44;25.40;44.90
24664;DHT22;12791;50.992;13.788;2023-09-08T12:46:11;25.30;44.70
24664;DHT22;12791;50.992;13.788;2023-09-08T12:48:38;25.40;43.50
24664;DHT22;12791;50.992;13.788;2023-09-08T12:51:06;25.50;40.80
24664;DHT22;12791;50.992;13.788;2023-09-08T12:53:33;25.60;40.20
24664;DHT22;12791;50.992;13.788;2023-09-08T12:56:01;25.70;40.00
24664;DHT22;12791;50.992;13.788;2023-09-08T12:58:28;25.70;40.30
24664;DHT22;12791;50.992;13.788;2023-09-08T13:00:55;25.70;41.00
24664;DHT22;12791;50.992;13.788;2023-09-08T13:03:22;25.70;40.60
24664;DHT22;12791;50.992;13.788;2023-09-08T13:05:49;25.70;39.90
24664;DHT22;12791;50.992;13.788;2023-09-08T13:08:17;25.80;40.70
24664;DHT22;12791;50.992;13.788;2023-09-08T13:10:43;25.90;40.80
24664;DHT22;12791;50.992;13.788;2023-09-08T13:13:10;25.90;41.20
24664;DHT22;12791;50.992;13.788;2023-09-08T13:15:37;25.90;42.30
24664;DHT22;12791;50.992;13.788;2023-09-08T13:18:03;26.00;39.70
24664;DHT22;12791;50.992;13.788;2023-09-08T13:20:30;25.90;40.60
24664;DHT22;12791;50.992;13.788;2023-09-08T13:22:57;25.90;41.50
24664;DHT22;12791;50.992;13.788;2023-09-08T13:25:25;25.90;42.00
24664;DHT22;12791;50.992;13.788;2023-09-08T13:27:52;25.90;40.70
24664;DHT22;12791;50.992;13.788;2023-09-08T13:30:19;26.00;40.30
24664;DHT22;12791;50.992;13.788;2023-09-08T13:32:47;26.10;39.20
24664;DHT22;12791;50.992;13.788;2023-09-08T13:35:14;26.10;39.20
24664;DHT22;12791;50.992;13.788;2023-09-08T13:37:41;26.10;39.90
24664;DHT22;12791;50.992;13.788;2023-09-08T13:40:08;26.10;39.50
24664;DHT22;12791;50.992;13.788;2023-09-08T13:42:36;26.10;41.00
24664;DHT22;12791;50.992;13.788;2023-09-08T13:45:03;26.10;41.00
24664;DHT22;12791;50.992;13.788;2023-09-08T13:47:31;26.00;41.10
24664;DHT22;12791;50.992;13.788;2023-09-08T13:49:58;26.00;41.60
24664;DHT22;12791;50.992;13.788;2023-09-08T13:52:25;26.00;42.00
24664;DHT22;12791;50.992;13.788;2023-09-08T13:54:51;25.90;41.70
24664;DHT22;12791;50.992;13.788;2023-09-08T13:57:18;26.00;40.60
24664;DHT22;12791;50.992;13.788;2023-09-08T13:59:47;26.00;40.10
24664;DHT22;12791;50.992;13.788;2023-09-08T14:02:14;26.10;39.20
24664;DHT22;12791;50.992;13.788;2023-09-08T14:04:41;26.10;39.20
24664;DHT22;12791;50.992;13.788;2023-09-08T14:07:08;26.20;39.20
24664;DHT22;12791;50.992;13.788;2023-09-08T14:09:35;26.20;39.20
24664;DHT22;12791;50.992;13.788;2023-09-08T14:12:02;26.30;39.60
24664;DHT22;12791;50.992;13.788;2023-09-08T14:14:29;26.20;39.60
24664;DHT22;12791;50.992;13.788;2023-09-08T14:16:57;26.20;39.50
24664;DHT22;12791;50.992;13.788;2023-09-08T14:19:24;26.20;39.10
24664;DHT22;12791;50.992;13.788;2023-09-08T14:21:50;26.30;38.90
24664;DHT22;12791;50.992;13.788;2023-09-08T14:24:17;26.30;39.30
24664;DHT22;12791;50.992;13.788;2023-09-08T14:26:44;26.40;39.40
24664;DHT22;12791;50.992;13.788;2023-09-08T14:29:10;26.30;39.30
24664;DHT22;12791;50.992;13.788;2023-09-08T14:31:37;26.30;39.30
24664;DHT22;12791;50.992;13.788;2023-09-08T14:34:05;26.40;39.40
24664;DHT22;12791;50.992;13.788;2023-09-08T14:36:32;26.40;39.40
24664;DHT22;12791;50.992;13.788;2023-09-08T14:38:58;26.50;39.40
24664;DHT22;12791;50.992;13.788;2023-09-08T14:41:25;26.60;39.50
24664;DHT22;12791;50.992;13.788;2023-09-08T14:43:52;26.60;39.50
24664;DHT22;12791;50.992;13.788;2023-09-08T14:46:18;26.70;39.60
24664;DHT22;12791;50.992;13.788;2023-09-08T14:48:45;26.70;39.60
24664;DHT22;12791;50.992;13.788;2023-09-08T14:51:13;26.80;39.40
24664;DHT22;12791;50.992;13.788;2023-09-08T14:53:40;26.80;39.60
24664;DHT22;12791;50.992;13.788;2023-09-08T14:56:06;26.80;38.50
24664;DHT22;12791;50.992;13.788;2023-09-08T14:58:33;26.90;38.40
24664;DHT22;12791;50.992;13.788;2023-09-08T15:01:00;26.90;38.90
24664;DHT22;12791;50.992;13.788;2023-09-08T15:03:32;26.90;38.50
24664;DHT22;12791;50.992;13.788;2023-09-08T15:05:59;26.90;38.60
24664;DHT22;12791;50.992;13.788;2023-09-08T15:08:28;27.00;38.60
24664;DHT22;12791;50.992;13.788;2023-09-08T15:10:55;26.90;38.80
24664;DHT22;12791;50.992;13.788;2023-09-08T15:13:21;26.90;39.00
24664;DHT22;12791;50.992;13.788;2023-09-08T15:15:48;26.90;39.60
24664;DHT22;12791;50.992;13.788;2023-09-08T15:18:15;26.90;39.00